createdAt,value
2023-05-14T00:00:28.038Z,17.50
2023-05-14T00:03:19.756Z,16.10
2023-05-14T00:05:52.165Z,16.40
2023-05-14T00:08:23.816Z,16.10
2023-05-14T00:10:56.080Z,17.00
2023-05-14T00:13:28.746Z,18.00
2023-05-14T00:16:00.561Z,17.90
2023-05-14T00:18:32.483Z,16.90
2023-05-14T00:21:04.340Z,16.70
2023-05-14T00:23:36.465Z,11.60
2023-05-14T00:26:08.362Z,17.50
2023-05-14T00:28:40.151Z,16.40
2023-05-14T00:31:11.892Z,16.50
2023-05-14T00:33:43.725Z,17.20
2023-05-14T00:36:15.654Z,16.10
2023-05-14T00:38:47.381Z,15.40
2023-05-14T00:41:19.298Z,16.50
2023-05-14T00:43:51.040Z,15.50
2023-05-14T00:46:22.884Z,16.40
2023-05-14T00:48:56.641Z,16.60
2023-05-14T00:53:58.990Z,17.00
2023-05-14T00:56:30.999Z,16.00
2023-05-14T00:59:02.896Z,11.70
2023-05-14T01:01:34.790Z,16.00
2023-05-14T01:04:08.404Z,16.20
2023-05-14T01:06:48.458Z,16.60
2023-05-14T01:09:26.287Z,15.50
2023-05-14T01:12:06.774Z,16.70
2023-05-14T01:14:45.072Z,16.20
2023-05-14T01:17:20.074Z,16.30
2023-05-14T01:19:53.484Z,15.70
2023-05-14T01:22:25.661Z,16.00
2023-05-14T01:24:57.682Z,15.80
2023-05-14T01:27:36.045Z,17.00
2023-05-14T01:30:15.149Z,15.80
2023-05-14T01:32:49.265Z,17.10
2023-05-14T01:35:23.403Z,17.90
2023-05-14T01:37:57.142Z,16.90
2023-05-14T01:40:30.742Z,17.10
2023-05-14T01:43:03.348Z,17.10
2023-05-14T01:45:37.823Z,17.60
2023-05-14T01:48:09.794Z,17.10
2023-05-14T01:50:41.722Z,15.90
2023-05-14T01:53:13.524Z,17.10
2023-05-14T01:55:46.464Z,15.50
2023-05-14T01:58:19.900Z,17.20
2023-05-14T02:00:51.591Z,16.10
2023-05-14T02:03:23.906Z,16.60
2023-05-14T02:05:55.980Z,16.60
2023-05-14T02:08:27.709Z,15.70
2023-05-14T02:10:59.466Z,17.10
2023-05-14T02:13:31.123Z,16.40
2023-05-14T02:16:03.331Z,15.70
2023-05-14T02:18:35.001Z,16.40
2023-05-14T02:21:07.300Z,16.20
2023-05-14T02:23:41.928Z,16.80
2023-05-14T02:26:14.328Z,16.70
2023-05-14T02:28:46.538Z,17.20
2023-05-14T02:31:19.284Z,15.90
2023-05-14T02:33:51.079Z,15.50
2023-05-14T02:36:22.827Z,11.40
2023-05-14T02:38:54.460Z,15.70
2023-05-14T02:41:26.902Z,16.00
2023-05-14T02:43:58.579Z,16.20
2023-05-14T02:46:31.560Z,16.10
2023-05-14T02:49:03.925Z,16.00
2023-05-14T02:51:36.049Z,16.50
2023-05-14T02:54:08.033Z,15.90
2023-05-14T02:56:39.686Z,12.50
2023-05-14T02:59:11.646Z,16.90
2023-05-14T03:01:43.803Z,16.70
2023-05-14T03:04:16.489Z,17.10
2023-05-14T03:06:48.219Z,17.80
2023-05-14T03:09:19.877Z,17.20
2023-05-14T03:11:52.050Z,18.00
2023-05-14T03:14:23.698Z,19.30
2023-05-14T03:16:55.646Z,16.50
2023-05-14T03:19:27.462Z,19.20
2023-05-14T03:21:59.280Z,16.60
2023-05-14T03:24:31.532Z,16.90
2023-05-14T03:27:03.295Z,16.90
2023-05-14T03:29:35.105Z,12.00
2023-05-14T03:32:08.095Z,17.50
2023-05-14T03:34:39.967Z,17.90
2023-05-14T03:37:12.032Z,18.10
2023-05-14T03:39:43.822Z,18.00
2023-05-14T03:42:15.841Z,12.50
2023-05-14T03:44:47.711Z,18.60
2023-05-14T03:47:20.445Z,17.80
2023-05-14T03:49:52.219Z,17.10
2023-05-14T03:52:24.679Z,17.60
2023-05-14T03:54:56.290Z,17.90
2023-05-14T03:57:27.991Z,17.00
2023-05-14T04:00:01.218Z,18.00
2023-05-14T04:02:33.155Z,17.70
2023-05-14T04:05:05.469Z,12.50
2023-05-14T04:07:37.817Z,18.00
2023-05-14T04:10:11.518Z,17.00
2023-05-14T04:12:44.003Z,17.40
2023-05-14T04:15:15.838Z,17.10
2023-05-14T04:17:48.089Z,16.60
2023-05-14T04:20:20.126Z,17.80
2023-05-14T04:22:51.749Z,18.70
2023-05-14T04:25:24.076Z,16.40
2023-05-14T04:27:55.722Z,17.20
2023-05-14T04:30:27.718Z,17.00
2023-05-14T04:32:59.433Z,17.20
2023-05-14T04:35:31.207Z,16.10
2023-05-14T04:38:03.031Z,15.90
2023-05-14T04:40:34.768Z,16.50
2023-05-14T04:43:06.651Z,16.60
2023-05-14T04:45:38.322Z,16.90
2023-05-14T04:48:11.016Z,16.30
2023-05-14T04:50:43.752Z,15.50
2023-05-14T04:55:45.769Z,15.80
2023-05-14T04:58:17.605Z,16.10
2023-05-14T05:00:49.360Z,17.30
2023-05-14T05:03:21.248Z,16.10
2023-05-14T05:05:53.003Z,16.10
2023-05-14T05:08:24.758Z,16.10
2023-05-14T05:10:56.415Z,16.70
2023-05-14T05:13:28.099Z,17.00
2023-05-14T05:16:00.003Z,16.70
2023-05-14T05:18:32.309Z,16.80
2023-05-14T05:21:04.150Z,16.00
2023-05-14T05:23:36.101Z,17.20
2023-05-14T05:26:07.865Z,17.70
2023-05-14T05:28:40.137Z,16.80
2023-05-14T05:31:12.182Z,16.40
2023-05-14T05:33:44.114Z,17.10
2023-05-14T05:36:15.773Z,16.20
2023-05-14T05:38:47.514Z,17.10
2023-05-14T05:41:19.266Z,16.30
2023-05-14T05:43:51.046Z,17.90
2023-05-14T05:46:22.814Z,17.00
2023-05-14T05:48:55.009Z,16.70
2023-05-14T05:51:26.702Z,16.50
2023-05-14T05:53:58.454Z,18.00
2023-05-14T05:56:30.779Z,17.40
2023-05-14T05:59:04.048Z,16.00
2023-05-14T06:01:36.218Z,16.60
2023-05-14T06:04:08.638Z,11.50
2023-05-14T06:09:11.358Z,16.60
2023-05-14T06:11:43.035Z,15.70
2023-05-14T06:14:14.845Z,15.50
2023-05-14T06:16:46.610Z,16.80
2023-05-14T06:19:18.600Z,16.70
2023-05-14T06:21:50.433Z,16.70
2023-05-14T06:24:22.254Z,16.50
2023-05-14T06:26:54.376Z,16.10
2023-05-14T06:29:26.311Z,16.40
2023-05-14T06:32:05.615Z,15.60
2023-05-14T06:34:37.442Z,15.60
2023-05-14T06:37:09.533Z,14.90
2023-05-14T06:39:44.111Z,16.40
2023-05-14T06:42:15.815Z,14.40
2023-05-14T06:44:47.974Z,13.90
2023-05-14T06:47:20.116Z,15.00
2023-05-14T06:49:55.919Z,13.80
2023-05-14T06:52:27.972Z,14.90
2023-05-14T06:54:59.770Z,14.30
2023-05-14T06:57:35.545Z,12.90
2023-05-14T07:00:10.832Z,13.00
2023-05-14T07:02:42.758Z,12.40
2023-05-14T07:05:14.763Z,12.80
2023-05-14T07:07:46.551Z,12.80
2023-05-14T07:10:18.822Z,11.80
2023-05-14T07:12:51.970Z,12.50
2023-05-14T07:15:23.691Z,11.90
2023-05-14T07:17:55.683Z,11.80
2023-05-14T07:20:27.742Z,12.20
2023-05-14T07:22:59.897Z,10.60
2023-05-14T07:25:32.622Z,9.50
2023-05-14T07:30:34.712Z,10.20
2023-05-14T07:33:07.037Z,8.60
2023-05-14T07:35:39.363Z,9.60
2023-05-14T07:38:11.208Z,9.20
2023-05-14T07:40:43.376Z,9.50
2023-05-14T07:43:15.110Z,9.00
2023-05-14T07:45:48.026Z,9.00
2023-05-14T07:48:19.873Z,8.10
2023-05-14T07:50:52.432Z,8.10
2023-05-14T07:53:24.961Z,8.00
2023-05-14T07:58:27.752Z,7.70
2023-05-14T08:01:01.366Z,7.80
2023-05-14T08:03:33.192Z,7.50
2023-05-14T08:06:05.080Z,7.90
2023-05-14T08:08:36.878Z,6.40
2023-05-14T08:11:09.050Z,6.70
2023-05-14T08:13:41.480Z,6.00
2023-05-14T08:16:13.321Z,6.70
2023-05-14T08:18:45.083Z,7.50
2023-05-14T08:21:16.965Z,6.10
2023-05-14T08:23:48.737Z,6.50
2023-05-14T08:26:21.627Z,6.80
2023-05-14T08:28:53.870Z,6.20
2023-05-14T08:31:25.633Z,5.90
2023-05-14T08:33:57.426Z,6.40
2023-05-14T08:36:29.230Z,6.60
2023-05-14T08:39:01.166Z,6.00
2023-05-14T08:41:33.160Z,6.60
2023-05-14T08:44:13.559Z,5.90
2023-05-14T08:46:45.533Z,5.90
2023-05-14T08:49:30.037Z,5.90
2023-05-14T08:52:02.763Z,6.00
2023-05-14T08:57:06.117Z,5.80
2023-05-14T08:59:38.036Z,6.20
2023-05-14T09:02:15.316Z,6.50
2023-05-14T09:04:48.584Z,5.70
2023-05-14T09:07:21.204Z,6.10
2023-05-14T09:09:54.156Z,6.30
2023-05-14T09:12:26.174Z,5.20
2023-05-14T09:14:57.915Z,6.40
2023-05-14T09:17:29.913Z,6.30
2023-05-14T09:20:02.332Z,5.90
2023-05-14T09:22:35.938Z,6.50
2023-05-14T09:25:11.914Z,5.40
2023-05-14T09:27:43.768Z,5.40
2023-05-14T09:30:17.037Z,5.30
2023-05-14T09:32:50.566Z,5.10
2023-05-14T09:35:24.258Z,5.50
2023-05-14T09:37:56.970Z,5.20
2023-05-14T09:43:01.896Z,4.90
2023-05-14T09:45:33.924Z,5.80
2023-05-14T09:48:06.610Z,5.70
2023-05-14T09:50:44.549Z,5.90
2023-05-14T09:53:17.629Z,4.40
2023-05-14T09:55:50.717Z,5.60
2023-05-14T09:58:22.533Z,4.70
2023-05-14T10:00:58.393Z,4.80
2023-05-14T10:03:31.895Z,5.10
2023-05-14T10:06:08.709Z,5.10
2023-05-14T10:08:44.950Z,5.40
2023-05-14T10:11:21.451Z,5.00
2023-05-14T10:13:59.929Z,5.80
2023-05-14T10:16:35.260Z,4.90
2023-05-14T10:19:09.539Z,4.80
2023-05-14T10:21:46.078Z,5.70
2023-05-14T10:24:19.382Z,4.50
2023-05-14T10:26:51.349Z,4.60
2023-05-14T10:29:32.378Z,4.60
2023-05-14T10:32:07.443Z,4.90
2023-05-14T10:34:42.478Z,5.00
2023-05-14T10:37:15.891Z,4.90
2023-05-14T10:39:50.723Z,4.50
2023-05-14T10:42:25.776Z,4.80
2023-05-14T10:44:59.053Z,5.00
2023-05-14T10:47:32.151Z,4.80
2023-05-14T10:50:07.081Z,6.00
2023-05-14T10:52:39.455Z,5.10
2023-05-14T10:55:14.180Z,5.10
2023-05-14T10:57:47.530Z,5.20
2023-05-14T11:00:20.758Z,5.70
2023-05-14T11:02:57.549Z,5.80
2023-05-14T11:05:29.416Z,5.60
2023-05-14T11:08:04.343Z,4.80
2023-05-14T11:10:36.771Z,5.30
2023-05-14T11:13:08.436Z,6.30
2023-05-14T11:15:47.133Z,5.10
2023-05-14T11:18:30.931Z,5.10
2023-05-14T11:21:03.207Z,7.90
2023-05-14T11:23:35.343Z,15.40
2023-05-14T11:26:08.018Z,17.20
2023-05-14T11:28:39.945Z,110.70
2023-05-14T11:31:12.813Z,89.90
2023-05-14T11:33:45.152Z,36.40
2023-05-14T11:36:16.884Z,21.40
2023-05-14T11:38:52.322Z,34.30
2023-05-14T11:41:24.541Z,15.70
2023-05-14T11:43:56.371Z,8.60
2023-05-14T11:46:30.126Z,11.50
2023-05-14T11:49:04.766Z,11.90
2023-05-14T11:51:37.193Z,7.80
2023-05-14T11:54:08.979Z,7.30
2023-05-14T11:56:40.862Z,6.60
2023-05-14T11:59:13.596Z,5.70
2023-05-14T12:01:48.071Z,5.60
2023-05-14T12:04:22.745Z,7.00
2023-05-14T12:06:55.794Z,6.20
2023-05-14T12:09:28.250Z,5.00
2023-05-14T12:14:30.327Z,5.40
2023-05-14T12:17:04.351Z,5.70
2023-05-14T12:19:40.516Z,6.30
2023-05-14T12:22:14.632Z,5.00
2023-05-14T12:24:55.860Z,5.30
2023-05-14T12:27:29.539Z,6.10
2023-05-14T12:32:41.597Z,6.20
2023-05-14T12:35:13.631Z,5.50
2023-05-14T12:37:45.462Z,5.30
2023-05-14T12:40:17.455Z,5.60
2023-05-14T12:42:49.310Z,5.50
2023-05-14T12:45:21.121Z,6.10
2023-05-14T12:47:54.822Z,6.10
2023-05-14T12:50:27.004Z,5.80
2023-05-14T12:52:58.876Z,6.90
2023-05-14T12:55:30.944Z,5.90
2023-05-14T12:58:04.398Z,6.10
2023-05-14T13:00:39.835Z,5.90
2023-05-14T13:03:12.996Z,5.60
2023-05-14T13:05:46.572Z,5.80
2023-05-14T13:08:21.583Z,5.40
2023-05-14T13:10:53.694Z,6.50
2023-05-14T13:13:26.257Z,5.50
2023-05-14T13:15:58.083Z,6.10
2023-05-14T13:18:29.889Z,5.70
2023-05-14T13:21:04.296Z,5.30
2023-05-14T13:23:36.063Z,5.60
2023-05-14T13:26:08.463Z,5.30
2023-05-14T13:28:40.246Z,5.10
2023-05-14T13:31:14.445Z,5.30
2023-05-14T13:33:46.790Z,4.80
2023-05-14T13:36:18.473Z,5.70
2023-05-14T13:38:50.287Z,4.90
2023-05-14T13:41:23.523Z,5.90
2023-05-14T13:43:55.358Z,5.30
2023-05-14T13:46:27.228Z,5.30
2023-05-14T13:48:59.052Z,5.00
2023-05-14T13:51:31.350Z,5.30
2023-05-14T13:54:03.316Z,5.50
2023-05-14T13:56:35.536Z,5.40
2023-05-14T13:59:07.339Z,5.60
2023-05-14T14:01:39.089Z,6.20
2023-05-14T14:04:10.989Z,5.80
2023-05-14T14:06:43.011Z,6.20
2023-05-14T14:09:14.792Z,6.20
2023-05-14T14:11:46.674Z,6.20
2023-05-14T14:14:19.057Z,7.00
2023-05-14T14:16:50.833Z,6.20
2023-05-14T14:19:22.911Z,6.10
2023-05-14T14:21:54.727Z,7.60
2023-05-14T14:24:26.537Z,7.00
2023-05-14T14:26:58.278Z,6.00
2023-05-14T14:29:31.128Z,5.90
2023-05-14T14:32:03.178Z,5.40
2023-05-14T14:34:35.184Z,5.90
2023-05-14T14:37:07.296Z,6.00
2023-05-14T14:39:39.228Z,6.30
2023-05-14T14:42:11.181Z,4.90
2023-05-14T14:44:42.954Z,5.00
2023-05-14T14:47:14.856Z,5.40
2023-05-14T14:49:48.811Z,5.10
2023-05-14T14:52:20.942Z,5.30
2023-05-14T14:54:53.131Z,4.90
2023-05-14T14:57:25.135Z,5.10
2023-05-14T14:59:56.870Z,4.90
2023-05-14T15:02:28.900Z,5.30
2023-05-14T15:05:01.081Z,4.90
2023-05-14T15:07:33.337Z,4.90
2023-05-14T15:10:05.695Z,4.90
2023-05-14T15:12:37.512Z,4.40
2023-05-14T15:15:12.308Z,4.70
2023-05-14T15:17:44.450Z,4.80
2023-05-14T15:20:16.756Z,4.70
2023-05-14T15:22:49.107Z,5.10
2023-05-14T15:25:21.857Z,4.40
2023-05-14T15:27:54.065Z,4.90
2023-05-14T15:30:25.885Z,4.00
2023-05-14T15:32:58.083Z,5.10
2023-05-14T15:35:29.908Z,5.30
2023-05-14T15:38:01.612Z,4.30
2023-05-14T15:40:35.039Z,5.20
2023-05-14T15:43:07.128Z,4.20
2023-05-14T15:45:38.905Z,4.80
2023-05-14T15:48:10.766Z,4.90
2023-05-14T15:50:43.245Z,4.40
2023-05-14T15:55:46.206Z,5.20
2023-05-14T15:58:17.924Z,5.00
2023-05-14T16:00:50.116Z,4.40
2023-05-14T16:03:21.852Z,5.80
2023-05-14T16:05:53.616Z,5.10
2023-05-14T16:08:25.804Z,4.30
2023-05-14T16:10:57.610Z,4.70
2023-05-14T16:13:29.385Z,4.90
2023-05-14T16:16:01.246Z,4.50
2023-05-14T16:18:33.847Z,5.00
2023-05-14T16:23:36.730Z,4.60
2023-05-14T16:26:09.237Z,4.40
2023-05-14T16:28:42.754Z,4.90
2023-05-14T16:31:15.382Z,4.70
2023-05-14T16:33:47.224Z,4.60
2023-05-14T16:36:19.164Z,4.20
2023-05-14T16:39:06.687Z,4.40
2023-05-14T16:41:39.814Z,5.50
2023-05-14T16:44:11.654Z,4.20
2023-05-14T16:46:43.435Z,3.80
2023-05-14T16:49:15.280Z,4.60
2023-05-14T16:51:48.761Z,4.50
2023-05-14T16:54:20.669Z,4.10
2023-05-14T16:56:52.554Z,4.30
2023-05-14T16:59:25.145Z,3.80
2023-05-14T17:01:57.474Z,3.90
2023-05-14T17:04:29.476Z,4.10
2023-05-14T17:07:02.112Z,3.80
2023-05-14T17:09:34.815Z,5.60
2023-05-14T17:12:07.510Z,3.80
2023-05-14T17:14:39.401Z,3.50
2023-05-14T17:17:11.389Z,4.00
2023-05-14T17:19:43.183Z,3.50
2023-05-14T17:22:15.521Z,4.90
2023-05-14T17:24:47.973Z,3.80
2023-05-14T17:27:19.767Z,3.90
2023-05-14T17:29:51.927Z,3.50
2023-05-14T17:32:23.855Z,3.40
2023-05-14T17:34:56.361Z,3.40
2023-05-14T17:37:28.693Z,3.40
2023-05-14T17:40:00.570Z,3.00
2023-05-14T17:42:32.696Z,3.70
2023-05-14T17:45:05.230Z,3.50
2023-05-14T17:50:10.282Z,3.90
2023-05-14T17:52:44.165Z,3.20
2023-05-14T17:55:17.380Z,3.10
2023-05-14T17:57:49.310Z,3.20
2023-05-14T18:00:21.909Z,3.30
2023-05-14T18:05:24.666Z,3.60
2023-05-14T18:07:58.312Z,4.60
2023-05-14T18:10:30.473Z,5.20
2023-05-14T18:13:02.309Z,3.60
2023-05-14T18:15:34.407Z,3.40
2023-05-14T18:20:37.690Z,3.50
2023-05-14T18:23:09.435Z,3.20
2023-05-14T18:25:41.751Z,3.60
2023-05-14T18:28:13.660Z,3.30
2023-05-14T18:30:45.703Z,3.50
2023-05-14T18:33:18.217Z,3.70
2023-05-14T18:35:49.983Z,4.80
2023-05-14T18:38:21.742Z,4.00
2023-05-14T18:40:53.533Z,3.60
2023-05-14T18:43:26.131Z,3.20
2023-05-14T18:48:28.674Z,3.70
2023-05-14T18:51:01.064Z,4.20
2023-05-14T18:53:33.368Z,3.70
2023-05-14T18:56:05.577Z,4.40
2023-05-14T18:58:37.354Z,3.40
2023-05-14T19:01:09.313Z,3.70
2023-05-14T19:03:42.125Z,3.50
2023-05-14T19:06:14.165Z,4.20
2023-05-14T19:08:46.399Z,4.00
2023-05-14T19:11:18.713Z,4.00
2023-05-14T19:13:50.441Z,3.90
2023-05-14T19:16:23.170Z,4.90
2023-05-14T19:18:55.070Z,5.80
2023-05-14T19:21:26.880Z,3.60
2023-05-14T19:23:58.589Z,4.20
2023-05-14T19:26:30.505Z,4.00
2023-05-14T19:29:02.638Z,4.30
2023-05-14T19:31:34.568Z,4.00
2023-05-14T19:34:06.397Z,4.30
2023-05-14T19:36:38.233Z,4.60
2023-05-14T19:39:10.493Z,4.90
2023-05-14T19:41:42.209Z,5.20
2023-05-14T19:44:13.916Z,4.50
2023-05-14T19:46:45.659Z,4.80
2023-05-14T19:49:17.596Z,4.50
2023-05-14T19:51:49.434Z,4.20
2023-05-14T19:54:21.256Z,4.80
2023-05-14T19:56:53.041Z,4.70
2023-05-14T19:59:24.815Z,4.40
2023-05-14T20:01:56.795Z,4.10
2023-05-14T20:04:28.547Z,4.80
2023-05-14T20:07:00.785Z,4.90
2023-05-14T20:09:32.582Z,4.70
2023-05-14T20:12:07.525Z,5.30
2023-05-14T20:14:39.360Z,5.10
2023-05-14T20:17:11.300Z,5.50
2023-05-14T20:19:43.801Z,4.90
2023-05-14T20:22:16.801Z,5.60
2023-05-14T20:24:48.562Z,5.20
2023-05-14T20:27:20.759Z,4.70
2023-05-14T20:29:54.026Z,4.70
2023-05-14T20:32:26.057Z,5.30
2023-05-14T20:35:01.836Z,5.60
2023-05-14T20:37:34.330Z,5.10
2023-05-14T20:42:38.701Z,5.50
2023-05-14T20:45:13.074Z,5.50
2023-05-14T20:47:45.046Z,6.30
2023-05-14T20:50:16.862Z,7.60
2023-05-14T20:52:48.603Z,6.80
2023-05-14T20:55:21.746Z,7.90
2023-05-14T20:57:53.736Z,7.80
2023-05-14T21:00:25.951Z,6.20
2023-05-14T21:02:59.528Z,8.80
2023-05-14T21:05:31.569Z,8.90
2023-05-14T21:08:03.476Z,8.60
2023-05-14T21:10:35.228Z,8.40
2023-05-14T21:13:08.078Z,8.30
2023-05-14T21:18:10.383Z,7.80
2023-05-14T21:20:42.801Z,7.20
2023-05-14T21:23:14.656Z,7.90
2023-05-14T21:25:46.808Z,8.60
2023-05-14T21:28:18.549Z,8.70
2023-05-14T21:30:53.048Z,9.00
2023-05-14T21:33:25.697Z,9.20
2023-05-14T21:35:57.457Z,8.20
2023-05-14T21:38:29.354Z,7.90
2023-05-14T21:41:01.110Z,8.50
2023-05-14T21:43:32.836Z,7.90
2023-05-14T21:46:04.709Z,8.20
2023-05-14T21:48:36.535Z,8.00
2023-05-14T21:51:08.740Z,7.40
2023-05-14T21:53:43.342Z,7.70
2023-05-14T21:56:15.116Z,7.50
2023-05-14T21:58:47.084Z,8.40
2023-05-14T22:01:18.901Z,7.30
2023-05-14T22:03:51.380Z,8.90
2023-05-14T22:06:23.361Z,7.30
2023-05-14T22:08:55.102Z,8.00
2023-05-14T22:11:26.751Z,7.70
2023-05-14T22:13:58.796Z,7.30
2023-05-14T22:16:30.575Z,7.20
2023-05-14T22:19:02.876Z,6.90
2023-05-14T22:21:35.760Z,8.10
2023-05-14T22:24:08.437Z,7.10
2023-05-14T22:26:40.225Z,7.40
2023-05-14T22:29:11.957Z,6.90
2023-05-14T22:31:43.954Z,6.40
2023-05-14T22:34:16.088Z,6.80
2023-05-14T22:36:48.247Z,6.90
2023-05-14T22:39:20.293Z,6.60
2023-05-14T22:41:55.386Z,6.30
2023-05-14T22:44:29.690Z,6.20
2023-05-14T22:47:01.786Z,6.70
2023-05-14T22:49:33.559Z,6.90
2023-05-14T22:52:05.744Z,6.60
2023-05-14T22:54:37.442Z,7.30
2023-05-14T22:57:11.141Z,6.90
2023-05-14T22:59:42.885Z,6.80
2023-05-14T23:02:14.605Z,6.20
2023-05-14T23:04:46.440Z,7.70
2023-05-14T23:07:18.355Z,6.20
2023-05-14T23:09:50.082Z,5.80
2023-05-14T23:12:21.903Z,6.80
2023-05-14T23:14:53.937Z,6.60
2023-05-14T23:17:26.087Z,6.30
2023-05-14T23:19:57.943Z,6.80
2023-05-14T23:22:29.685Z,6.70
2023-05-14T23:25:01.473Z,6.40
2023-05-14T23:27:33.343Z,6.30
2023-05-14T23:30:05.859Z,7.00
2023-05-14T23:32:37.592Z,6.90
2023-05-14T23:35:11.627Z,6.50
2023-05-14T23:37:47.228Z,7.00
2023-05-14T23:40:19.590Z,7.30
2023-05-14T23:42:51.578Z,7.10
2023-05-14T23:45:26.607Z,7.10
2023-05-14T23:47:59.968Z,7.20
2023-05-14T23:50:32.173Z,6.80
2023-05-14T23:53:03.867Z,4.20
2023-05-14T23:55:35.813Z,7.10
2023-05-14T23:58:07.610Z,6.10
